createdAt,value
2023-01-31T00:01:37.551Z,2.83
2023-01-31T00:04:07.176Z,4.03
2023-01-31T00:06:37.351Z,2.65
2023-01-31T00:09:06.267Z,3.20
2023-01-31T00:11:33.615Z,3.08
2023-01-31T00:14:02.236Z,2.92
2023-01-31T00:16:29.141Z,3.15
2023-01-31T00:18:55.948Z,4.15
2023-01-31T00:21:25.283Z,3.47
2023-01-31T00:23:53.167Z,2.85
2023-01-31T00:26:31.501Z,4.18
2023-01-31T00:29:00.156Z,3.53
2023-01-31T00:31:28.808Z,3.97
2023-01-31T00:33:56.726Z,2.88
2023-01-31T00:36:25.995Z,2.80
2023-01-31T00:38:55.758Z,3.05
2023-01-31T00:41:25.375Z,3.78
2023-01-31T00:43:52.548Z,3.30
2023-01-31T00:46:23.737Z,3.38
2023-01-31T00:48:51.548Z,3.63
2023-01-31T00:51:19.169Z,4.35
2023-01-31T00:53:46.282Z,4.20
2023-01-31T00:56:15.693Z,4.22
2023-01-31T00:58:43.058Z,3.53
2023-01-31T01:01:24.461Z,2.78
2023-01-31T01:03:51.762Z,3.77
2023-01-31T01:06:19.100Z,2.92
2023-01-31T01:08:46.380Z,3.10
2023-01-31T01:11:17.124Z,3.35
2023-01-31T01:13:44.589Z,3.78
2023-01-31T01:16:17.752Z,4.50
2023-01-31T01:18:46.542Z,3.35
2023-01-31T01:21:17.015Z,3.05
2023-01-31T01:23:44.017Z,4.20
2023-01-31T01:26:26.041Z,3.22
2023-01-31T01:28:54.206Z,3.28
2023-01-31T01:31:22.333Z,3.38
2023-01-31T01:33:49.799Z,4.18
2023-01-31T01:36:22.154Z,4.30
2023-01-31T01:38:49.331Z,2.80
2023-01-31T01:41:16.340Z,3.92
2023-01-31T01:43:46.183Z,3.92
2023-01-31T01:46:39.107Z,4.47
2023-01-31T01:49:33.224Z,4.95
2023-01-31T01:52:03.216Z,3.55
2023-01-31T01:54:43.474Z,3.90
2023-01-31T01:57:13.742Z,4.35
2023-01-31T01:59:47.328Z,3.70
2023-01-31T02:02:14.790Z,5.00
2023-01-31T02:04:44.203Z,3.92
2023-01-31T02:07:11.173Z,4.22
2023-01-31T02:10:13.082Z,3.85
2023-01-31T02:12:40.317Z,3.83
2023-01-31T02:15:07.953Z,4.05
2023-01-31T02:17:34.911Z,3.80
2023-01-31T02:20:20.847Z,4.47
2023-01-31T02:23:25.320Z,3.95
2023-01-31T02:26:10.843Z,4.10
2023-01-31T02:29:00.409Z,3.63
2023-01-31T02:31:42.165Z,3.72
2023-01-31T02:34:39.649Z,4.88
2023-01-31T02:37:15.243Z,4.18
2023-01-31T02:40:04.690Z,4.20
2023-01-31T02:42:56.271Z,3.80
2023-01-31T02:45:27.949Z,4.10
2023-01-31T02:48:09.355Z,5.82
2023-01-31T02:50:59.173Z,4.00
2023-01-31T02:53:33.018Z,4.60
2023-01-31T02:56:23.724Z,4.18
2023-01-31T02:59:09.764Z,4.65
2023-01-31T03:01:47.289Z,4.43
2023-01-31T03:04:14.778Z,4.30
2023-01-31T03:06:54.760Z,4.18
2023-01-31T03:09:42.828Z,4.18
2023-01-31T03:12:34.509Z,4.00
2023-01-31T03:15:22.678Z,4.53
2023-01-31T03:18:21.816Z,4.47
2023-01-31T03:21:08.822Z,4.22
2023-01-31T03:23:38.424Z,4.15
2023-01-31T03:26:07.790Z,3.83
2023-01-31T03:28:37.189Z,4.07
2023-01-31T03:31:21.338Z,3.85
2023-01-31T03:33:56.037Z,4.28
2023-01-31T03:36:36.225Z,5.75
2023-01-31T03:39:30.087Z,4.80
2023-01-31T03:42:13.458Z,5.07
2023-01-31T03:44:59.303Z,4.75
2023-01-31T03:47:29.570Z,4.63
2023-01-31T03:50:01.568Z,5.32
2023-01-31T03:52:36.128Z,4.97
2023-01-31T03:55:10.292Z,5.07
2023-01-31T03:57:40.924Z,4.63
2023-01-31T04:00:12.059Z,4.60
2023-01-31T04:02:39.450Z,5.05
2023-01-31T04:05:15.954Z,5.00
2023-01-31T04:07:42.951Z,6.47
2023-01-31T04:10:19.727Z,4.43
2023-01-31T04:12:47.539Z,5.85
2023-01-31T04:15:14.848Z,5.45
2023-01-31T04:17:41.609Z,5.65
2023-01-31T04:20:10.719Z,4.63
2023-01-31T04:22:37.694Z,6.05
2023-01-31T04:25:05.811Z,5.45
2023-01-31T04:27:33.212Z,5.45
2023-01-31T04:30:00.141Z,5.85
2023-01-31T04:32:28.632Z,5.35
2023-01-31T04:34:55.404Z,6.90
2023-01-31T04:37:22.222Z,5.05
2023-01-31T04:39:50.154Z,5.93
2023-01-31T04:42:17.075Z,4.68
2023-01-31T04:44:44.027Z,5.43
2023-01-31T04:47:10.769Z,4.57
2023-01-31T04:49:37.564Z,5.88
2023-01-31T04:52:04.602Z,5.22
2023-01-31T04:54:31.701Z,5.13
2023-01-31T04:56:58.529Z,6.07
2023-01-31T04:59:25.323Z,5.38
2023-01-31T05:01:57.108Z,5.18
2023-01-31T05:04:33.984Z,5.40
2023-01-31T05:07:00.693Z,4.95
2023-01-31T05:09:27.502Z,5.63
2023-01-31T05:11:54.267Z,4.60
2023-01-31T05:14:21.233Z,4.97
2023-01-31T05:16:48.193Z,5.25
2023-01-31T05:19:16.280Z,4.85
2023-01-31T05:21:55.452Z,5.50
2023-01-31T05:24:22.837Z,4.68
2023-01-31T05:26:51.621Z,6.03
2023-01-31T05:29:19.359Z,5.40
2023-01-31T05:31:46.234Z,5.43
2023-01-31T05:34:15.350Z,5.25
2023-01-31T05:36:43.021Z,5.20
2023-01-31T05:39:10.055Z,5.45
2023-01-31T05:41:36.862Z,5.80
2023-01-31T05:44:04.372Z,4.80
2023-01-31T05:46:31.347Z,5.25
2023-01-31T05:48:58.163Z,5.10
2023-01-31T05:51:24.950Z,5.43
2023-01-31T05:53:52.046Z,4.03
2023-01-31T05:56:18.882Z,4.95
2023-01-31T05:58:50.395Z,4.55
2023-01-31T06:01:18.624Z,4.60
2023-01-31T06:03:45.621Z,5.10
2023-01-31T06:06:13.229Z,5.88
2023-01-31T06:08:41.942Z,5.07
2023-01-31T06:11:11.252Z,5.93
2023-01-31T06:13:39.391Z,4.88
2023-01-31T06:16:06.729Z,5.60
2023-01-31T06:18:33.519Z,4.78
2023-01-31T06:21:00.352Z,4.40
2023-01-31T06:23:27.398Z,5.55
2023-01-31T06:25:55.638Z,5.22
2023-01-31T06:28:23.300Z,4.93
2023-01-31T06:30:53.279Z,5.45
2023-01-31T06:33:20.072Z,4.47
2023-01-31T06:35:46.865Z,5.65
2023-01-31T06:38:13.798Z,4.88
2023-01-31T06:40:40.596Z,5.82
2023-01-31T06:43:07.443Z,5.13
2023-01-31T06:45:34.258Z,6.50
2023-01-31T06:48:01.788Z,5.75
2023-01-31T06:50:28.593Z,5.97
2023-01-31T06:52:55.356Z,6.25
2023-01-31T06:55:22.457Z,5.20
2023-01-31T06:57:50.253Z,5.40
2023-01-31T07:00:21.306Z,6.07
2023-01-31T07:02:48.773Z,6.38
2023-01-31T07:05:15.958Z,4.78
2023-01-31T07:07:42.734Z,6.47
2023-01-31T07:10:10.484Z,5.05
2023-01-31T07:12:37.299Z,5.25
2023-01-31T07:15:04.569Z,5.47
2023-01-31T07:17:31.493Z,5.38
2023-01-31T07:19:58.269Z,6.30
2023-01-31T07:22:25.258Z,6.80
2023-01-31T07:24:52.130Z,6.35
2023-01-31T07:27:18.940Z,4.95
2023-01-31T07:29:46.055Z,5.93
2023-01-31T07:32:16.316Z,5.45
2023-01-31T07:34:43.088Z,7.50
2023-01-31T07:37:09.870Z,7.75
2023-01-31T07:39:36.680Z,7.15
2023-01-31T07:42:03.633Z,6.05
2023-01-31T07:44:30.552Z,7.65
2023-01-31T07:46:57.723Z,8.68
2023-01-31T07:49:24.516Z,5.80
2023-01-31T07:51:51.448Z,5.60
2023-01-31T07:54:18.257Z,6.03
2023-01-31T07:56:45.087Z,6.78
2023-01-31T07:59:12.706Z,5.82
2023-01-31T08:01:58.295Z,6.05
2023-01-31T08:04:25.089Z,6.45
2023-01-31T08:06:55.322Z,4.93
2023-01-31T08:09:23.053Z,5.45
2023-01-31T08:11:49.897Z,6.35
2023-01-31T08:14:16.806Z,4.90
2023-01-31T08:16:43.627Z,5.07
2023-01-31T08:19:10.416Z,5.15
2023-01-31T08:21:37.191Z,5.88
2023-01-31T08:24:04.294Z,5.28
2023-01-31T08:26:31.617Z,5.57
2023-01-31T08:29:00.133Z,5.45
2023-01-31T08:31:28.304Z,5.95
2023-01-31T08:33:56.002Z,4.78
2023-01-31T08:36:29.510Z,5.00
2023-01-31T08:38:56.641Z,5.70
2023-01-31T08:41:25.697Z,5.53
2023-01-31T08:43:56.720Z,4.75
2023-01-31T08:46:26.966Z,4.40
2023-01-31T08:48:54.660Z,4.95
2023-01-31T08:51:22.419Z,5.32
2023-01-31T08:53:52.545Z,4.75
2023-01-31T08:56:21.462Z,5.57
2023-01-31T08:58:48.603Z,5.18
2023-01-31T09:01:17.584Z,5.18
2023-01-31T09:03:45.738Z,5.72
2023-01-31T09:06:19.103Z,5.60
2023-01-31T09:08:46.491Z,4.85
2023-01-31T09:11:17.530Z,5.50
2023-01-31T09:13:45.217Z,5.50
2023-01-31T09:16:14.229Z,4.50
2023-01-31T09:18:41.482Z,4.90
2023-01-31T09:21:11.204Z,4.28
2023-01-31T09:23:40.692Z,3.65
2023-01-31T09:26:09.368Z,4.20
2023-01-31T09:31:09.626Z,3.88
2023-01-31T09:33:37.133Z,4.15
2023-01-31T09:36:06.868Z,3.53
2023-01-31T09:38:34.227Z,3.25
2023-01-31T09:41:06.324Z,2.92
2023-01-31T09:43:41.531Z,3.60
2023-01-31T09:46:15.165Z,3.35
2023-01-31T09:48:46.123Z,3.58
2023-01-31T09:51:14.378Z,2.70
2023-01-31T09:53:42.428Z,4.28
2023-01-31T09:56:09.105Z,3.00
2023-01-31T09:58:49.429Z,3.13
2023-01-31T10:01:16.120Z,2.25
2023-01-31T10:04:03.919Z,2.70
2023-01-31T10:06:41.716Z,3.25
2023-01-31T10:09:35.984Z,2.03
2023-01-31T10:12:22.703Z,2.40
2023-01-31T10:14:54.128Z,2.00
2023-01-31T10:17:29.253Z,2.95
2023-01-31T10:20:18.118Z,2.85
2023-01-31T10:22:50.934Z,2.00
2023-01-31T10:25:26.775Z,2.58
2023-01-31T10:28:02.720Z,1.65
2023-01-31T10:30:40.538Z,2.20
2023-01-31T10:33:23.343Z,2.38
2023-01-31T10:35:52.136Z,2.05
2023-01-31T10:38:21.810Z,1.80
2023-01-31T10:40:55.514Z,2.33
2023-01-31T10:43:28.101Z,2.03
2023-01-31T10:45:59.372Z,2.72
2023-01-31T10:48:29.321Z,2.58
2023-01-31T10:51:01.884Z,1.60
2023-01-31T10:53:50.748Z,2.30
2023-01-31T10:56:28.272Z,1.58
2023-01-31T10:59:11.817Z,2.22
2023-01-31T11:01:38.811Z,1.75
2023-01-31T11:04:29.532Z,1.60
2023-01-31T11:06:59.670Z,2.28
2023-01-31T11:09:30.444Z,2.53
2023-01-31T11:11:59.920Z,2.60
2023-01-31T11:14:27.003Z,2.65
2023-01-31T11:17:05.010Z,2.25
2023-01-31T11:19:59.913Z,1.98
2023-01-31T11:22:30.976Z,2.13
2023-01-31T11:25:00.151Z,2.17
2023-01-31T11:27:37.633Z,1.52
2023-01-31T11:30:07.357Z,1.85
2023-01-31T11:32:36.984Z,2.40
2023-01-31T11:35:26.745Z,2.20
2023-01-31T11:38:02.453Z,2.30
2023-01-31T11:40:39.176Z,2.22
2023-01-31T11:43:22.795Z,3.17
2023-01-31T11:46:08.601Z,2.88
2023-01-31T11:48:44.371Z,3.33
2023-01-31T11:51:24.375Z,2.72
2023-01-31T11:53:51.874Z,2.70
2023-01-31T11:56:24.534Z,2.40
2023-01-31T11:58:55.871Z,3.28
2023-01-31T12:01:25.867Z,3.60
2023-01-31T12:04:03.054Z,2.85
2023-01-31T12:06:32.913Z,3.33
2023-01-31T12:09:02.136Z,2.50
2023-01-31T12:11:36.366Z,3.22
2023-01-31T12:14:16.763Z,2.75
2023-01-31T12:16:44.801Z,2.22
2023-01-31T12:19:14.572Z,2.55
2023-01-31T12:22:12.767Z,2.50
2023-01-31T12:25:04.462Z,2.72
2023-01-31T12:27:37.129Z,2.65
2023-01-31T12:30:06.787Z,2.90
2023-01-31T12:32:45.524Z,2.60
2023-01-31T12:35:37.221Z,3.28
2023-01-31T12:38:34.217Z,2.45
2023-01-31T12:41:32.710Z,2.05
2023-01-31T12:44:13.623Z,2.28
2023-01-31T12:47:10.966Z,2.25
2023-01-31T12:49:38.289Z,2.65
2023-01-31T12:52:32.758Z,2.45
2023-01-31T12:55:14.563Z,2.55
2023-01-31T12:58:05.645Z,3.80
2023-01-31T13:00:47.270Z,2.88
2023-01-31T13:03:39.105Z,2.88
2023-01-31T13:06:16.753Z,2.55
2023-01-31T13:09:06.688Z,3.00
2023-01-31T13:11:53.562Z,1.90
2023-01-31T13:14:23.187Z,2.75
2023-01-31T13:16:55.212Z,2.95
2023-01-31T13:19:51.658Z,2.15
2023-01-31T13:22:40.669Z,3.17
2023-01-31T13:25:24.314Z,2.85
2023-01-31T13:28:12.073Z,2.13
2023-01-31T13:30:57.349Z,2.38
2023-01-31T13:33:24.544Z,2.78
2023-01-31T13:36:09.747Z,2.08
2023-01-31T13:38:41.591Z,2.85
2023-01-31T13:41:31.079Z,2.45
2023-01-31T13:43:59.042Z,2.58
2023-01-31T13:46:54.832Z,3.22
2023-01-31T13:49:29.172Z,2.55
2023-01-31T13:51:58.792Z,3.13
2023-01-31T13:54:32.559Z,2.97
2023-01-31T13:57:02.527Z,2.70
2023-01-31T13:59:39.587Z,3.42
2023-01-31T14:02:18.801Z,2.95
2023-01-31T14:04:47.685Z,2.25
2023-01-31T14:07:22.596Z,3.22
2023-01-31T14:09:49.311Z,3.38
2023-01-31T14:12:17.066Z,2.78
2023-01-31T14:14:51.996Z,3.95
2023-01-31T14:17:21.692Z,2.55
2023-01-31T14:19:49.545Z,2.97
2023-01-31T14:22:20.357Z,3.15
2023-01-31T14:24:47.077Z,3.88
2023-01-31T14:27:27.905Z,3.33
2023-01-31T14:30:06.895Z,3.63
2023-01-31T14:32:44.778Z,4.18
2023-01-31T14:35:14.271Z,3.53
2023-01-31T14:38:06.793Z,3.55
2023-01-31T14:43:40.116Z,3.30
2023-01-31T14:46:13.071Z,4.25
2023-01-31T14:49:12.643Z,3.65
2023-01-31T14:51:39.325Z,3.72
2023-01-31T14:54:24.511Z,3.45
2023-01-31T14:57:22.115Z,3.75
2023-01-31T15:00:00.336Z,3.88
2023-01-31T15:02:33.619Z,3.63
2023-01-31T15:05:21.522Z,3.33
2023-01-31T15:08:23.695Z,3.47
2023-01-31T15:11:41.562Z,3.22
2023-01-31T15:14:34.649Z,3.40
2023-01-31T15:17:36.690Z,3.85
2023-01-31T15:20:24.725Z,3.33
2023-01-31T15:23:04.872Z,4.28
2023-01-31T15:25:51.050Z,4.85
2023-01-31T15:28:25.449Z,3.22
2023-01-31T15:30:53.694Z,4.10
2023-01-31T15:33:28.338Z,3.13
2023-01-31T15:36:06.416Z,3.92
2023-01-31T15:38:52.971Z,4.15
2023-01-31T15:41:42.524Z,3.38
2023-01-31T15:44:16.660Z,4.10
2023-01-31T15:46:45.204Z,4.15
2023-01-31T15:49:39.048Z,4.70
2023-01-31T15:52:12.469Z,4.03
2023-01-31T15:54:39.879Z,4.45
2023-01-31T15:57:15.666Z,4.60
2023-01-31T15:59:46.230Z,4.38
2023-01-31T16:02:25.429Z,4.38
2023-01-31T16:04:52.513Z,4.47
2023-01-31T16:07:21.821Z,4.28
2023-01-31T16:09:49.051Z,7.13
2023-01-31T16:12:16.138Z,4.47
2023-01-31T16:14:49.191Z,4.97
2023-01-31T16:17:16.854Z,4.32
2023-01-31T16:19:48.787Z,4.38
2023-01-31T16:22:33.301Z,5.20
2023-01-31T16:25:02.377Z,4.90
2023-01-31T16:27:37.437Z,4.72
2023-01-31T16:30:05.231Z,5.10
2023-01-31T16:32:35.038Z,4.93
2023-01-31T16:35:05.705Z,5.18
2023-01-31T16:37:34.051Z,5.18
2023-01-31T16:40:22.813Z,5.57
2023-01-31T16:42:49.895Z,5.55
2023-01-31T16:45:31.875Z,4.95
2023-01-31T16:48:23.163Z,5.80
2023-01-31T16:50:57.607Z,5.30
2023-01-31T16:53:34.330Z,5.25
2023-01-31T16:56:13.236Z,5.28
2023-01-31T16:58:55.280Z,5.75
2023-01-31T17:01:25.095Z,5.30
2023-01-31T17:04:09.794Z,5.53
2023-01-31T17:06:37.239Z,5.78
2023-01-31T17:09:06.367Z,4.18
2023-01-31T17:11:42.595Z,3.85
2023-01-31T17:14:10.279Z,4.80
2023-01-31T17:16:37.108Z,3.67
2023-01-31T17:19:04.244Z,4.43
2023-01-31T17:21:37.528Z,3.67
2023-01-31T17:24:04.444Z,5.43
2023-01-31T17:26:31.684Z,4.00
2023-01-31T17:29:01.892Z,4.20
2023-01-31T17:31:31.515Z,4.18
2023-01-31T17:33:58.607Z,4.13
2023-01-31T17:36:25.412Z,4.50
2023-01-31T17:38:53.071Z,4.22
2023-01-31T17:41:21.529Z,4.10
2023-01-31T17:43:48.252Z,4.10
2023-01-31T17:46:17.864Z,4.32
2023-01-31T17:48:45.183Z,3.33
2023-01-31T17:51:12.584Z,4.32
2023-01-31T17:53:49.488Z,3.25
2023-01-31T17:56:18.326Z,3.53
2023-01-31T17:58:45.612Z,3.70
2023-01-31T18:01:14.232Z,4.45
2023-01-31T18:03:41.430Z,3.03
2023-01-31T18:06:09.540Z,3.38
2023-01-31T18:08:36.795Z,3.67
2023-01-31T18:11:10.216Z,3.78
2023-01-31T18:13:38.494Z,3.25
2023-01-31T18:16:10.494Z,3.22
2023-01-31T18:18:40.600Z,3.20
2023-01-31T18:21:12.246Z,3.53
2023-01-31T18:23:38.990Z,3.35
2023-01-31T18:26:07.800Z,3.72
2023-01-31T18:28:35.126Z,3.70
2023-01-31T18:31:10.503Z,3.90
2023-01-31T18:33:37.950Z,3.90
2023-01-31T18:36:06.084Z,4.32
2023-01-31T18:38:33.037Z,3.10
2023-01-31T18:41:00.332Z,3.05
2023-01-31T18:43:30.473Z,2.92
2023-01-31T18:45:57.242Z,3.40
2023-01-31T18:48:24.354Z,2.90
2023-01-31T18:50:51.101Z,3.20
2023-01-31T18:53:17.829Z,3.80
2023-01-31T18:55:44.590Z,2.88
2023-01-31T18:58:11.391Z,2.83
2023-01-31T19:00:38.290Z,3.67
2023-01-31T19:03:05.108Z,2.72
2023-01-31T19:05:31.855Z,3.10
2023-01-31T19:07:58.594Z,3.35
2023-01-31T19:10:25.393Z,3.63
2023-01-31T19:12:52.207Z,3.50
2023-01-31T19:15:19.241Z,2.88
2023-01-31T19:17:46.092Z,3.80
2023-01-31T19:20:13.098Z,3.38
2023-01-31T19:22:39.909Z,2.85
2023-01-31T19:25:09.171Z,3.78
2023-01-31T19:27:35.966Z,2.90
2023-01-31T19:30:02.876Z,2.67
2023-01-31T19:32:31.066Z,2.85
2023-01-31T19:34:57.862Z,3.67
2023-01-31T19:37:24.669Z,3.00
2023-01-31T19:39:51.416Z,3.05
2023-01-31T19:42:18.505Z,3.17
2023-01-31T19:44:45.912Z,3.70
2023-01-31T19:47:12.725Z,3.10
2023-01-31T19:49:39.442Z,3.22
2023-01-31T19:52:06.153Z,4.47
2023-01-31T19:54:32.919Z,3.17
2023-01-31T19:56:59.669Z,3.47
2023-01-31T19:59:26.403Z,3.95
2023-01-31T20:01:53.227Z,3.30
2023-01-31T20:04:19.948Z,3.55
2023-01-31T20:06:46.812Z,2.88
2023-01-31T20:09:19.914Z,3.38
2023-01-31T20:11:46.832Z,2.70
2023-01-31T20:14:13.632Z,3.17
2023-01-31T20:16:40.442Z,3.22
2023-01-31T20:19:07.654Z,3.25
2023-01-31T20:21:34.594Z,2.45
2023-01-31T20:24:01.403Z,4.63
2023-01-31T20:26:29.760Z,2.75
2023-01-31T20:28:56.917Z,2.55
2023-01-31T20:31:24.009Z,3.50
2023-01-31T20:33:52.264Z,3.28
2023-01-31T20:36:19.068Z,2.95
2023-01-31T20:38:45.878Z,2.78
2023-01-31T20:41:15.065Z,3.13
2023-01-31T20:43:42.746Z,3.55
2023-01-31T20:46:14.427Z,2.60
2023-01-31T20:48:42.880Z,2.90
2023-01-31T20:51:09.736Z,2.78
2023-01-31T20:53:36.686Z,3.38
2023-01-31T20:56:11.063Z,3.13
2023-01-31T20:58:40.435Z,3.83
2023-01-31T21:01:08.856Z,4.30
2023-01-31T21:03:36.322Z,3.30
2023-01-31T21:06:04.264Z,3.50
2023-01-31T21:08:35.585Z,3.35
2023-01-31T21:11:07.212Z,3.90
2023-01-31T21:13:35.072Z,3.70
2023-01-31T21:16:05.446Z,3.95
2023-01-31T21:18:34.851Z,3.85
2023-01-31T21:21:07.451Z,3.95
2023-01-31T21:23:35.439Z,3.78
2023-01-31T21:26:03.726Z,3.97
2023-01-31T21:31:03.868Z,4.40
2023-01-31T21:33:31.092Z,3.10
2023-01-31T21:36:00.479Z,3.83
2023-01-31T21:38:30.142Z,3.53
2023-01-31T21:41:19.168Z,3.70
2023-01-31T21:43:45.912Z,3.80
2023-01-31T21:46:13.651Z,3.30
2023-01-31T21:48:41.188Z,3.78
2023-01-31T21:51:10.673Z,2.85
2023-01-31T21:53:38.076Z,2.95
2023-01-31T21:56:10.181Z,3.60
2023-01-31T21:58:38.484Z,3.05
2023-01-31T22:01:14.709Z,3.42
2023-01-31T22:03:45.247Z,3.22
2023-01-31T22:06:14.388Z,3.38
2023-01-31T22:08:41.943Z,3.40
2023-01-31T22:11:14.192Z,3.25
2023-01-31T22:16:20.827Z,2.83
2023-01-31T22:18:48.644Z,3.30
2023-01-31T22:21:20.915Z,3.10
2023-01-31T22:26:22.511Z,3.13
2023-01-31T22:28:49.833Z,3.30
2023-01-31T22:31:23.713Z,4.20
2023-01-31T22:33:50.851Z,3.88
2023-01-31T22:36:18.553Z,3.92
2023-01-31T22:38:46.973Z,4.35
2023-01-31T22:41:17.597Z,4.28
2023-01-31T22:43:48.446Z,4.00
2023-01-31T22:46:21.086Z,3.63
2023-01-31T22:48:51.272Z,4.80
2023-01-31T22:51:24.501Z,3.83
2023-01-31T22:53:51.631Z,4.10
2023-01-31T22:56:21.857Z,4.07
2023-01-31T22:58:49.698Z,4.63
2023-01-31T23:01:22.174Z,4.57
2023-01-31T23:03:50.071Z,4.70
2023-01-31T23:06:18.117Z,4.47
2023-01-31T23:08:45.378Z,4.82
2023-01-31T23:11:14.982Z,5.53
2023-01-31T23:13:42.809Z,4.13
2023-01-31T23:16:14.849Z,4.22
2023-01-31T23:18:41.799Z,4.68
2023-01-31T23:21:17.545Z,4.70
2023-01-31T23:23:45.508Z,4.47
2023-01-31T23:26:13.112Z,4.70
2023-01-31T23:28:40.103Z,4.70
2023-01-31T23:31:06.999Z,4.28
2023-01-31T23:33:34.304Z,4.75
2023-01-31T23:36:01.136Z,4.30
2023-01-31T23:38:27.903Z,4.63
2023-01-31T23:40:54.804Z,5.25
2023-01-31T23:43:22.870Z,4.53
2023-01-31T23:45:50.062Z,4.75
2023-01-31T23:48:17.169Z,4.70
2023-01-31T23:50:43.966Z,5.22
2023-01-31T23:53:10.758Z,4.93
2023-01-31T23:55:37.565Z,4.68
2023-01-31T23:58:04.468Z,4.88
